Adams, NY

9:40 AM EDT on September 02, 2014 (GMT -0400)
Deer Run Dairy | Change Station
CLOSE
Current Station
Personal Weather Station
Location: Adams, NY
Elevation: 420 ft
Nearby Weather Stations

Elev 420 ft 43.85 °N, 76.14 °W | Updated 3 minutes ago

Partly Cloudy
Partly Cloudy
74.3 °F
Feels Like 73 °F
N
7.0
Wind Variable Wind from WSW
Gusts 13.0 mph

Today
High -- | Low -- °F
--% Chance of Precip.
Yesterday
High -- | Low -- °F
Precip. -- in
6:28 AM 7:38 PM
First Quarter, 51% visible
Pressure 29.85 in
Visibility 10.0 miles
Clouds Few 1100 ft
Heat Index 73 °F
Dew Point 70 °F
Humidity 87%
Rainfall 0.00 in
Snow Depth Not available.
UV 2 out of 12
Pollen 4.10 out of 12
Air Quality Not available.
Flu Activity Not available.
METAR KART 021256Z AUTO 24011G17KT 10SM FEW011 24/19 A2986 RMK AO2 SLP106 T02390194

More Conditions Fewer Conditions

Pressure 29.85 in
Visibility 10.0 miles
Clouds Few 1100 ft
Heat Index 73 °F
Dew Point 70 °F
Humidity 87%
Rainfall 0.00 in
Snow Depth Not available.
UV 2 out of 12
Pollen 4.10 out of 12
Air Quality Not available.
Flu Activity Not available.
METAR KART 021256Z AUTO 24011G17KT 10SM FEW011 24/19 A2986 RMK AO2 SLP106 T02390194

More Conditions Fewer Conditions

10-Day Weather Forecast

Almanac

Astronomy

Sep. 02, 2014 Rise Set
Actual Time 6:28 AM EDT 7:38 PM EDT
Civil Twilight 5:59 AM EDT 8:07 PM EDT
Nautical Twilight 5:23 AM EDT 8:42 PM EDT
Astronomical Twilight 4:46 AM EDT 9:20 PM EDT
Moon 2:24 PM EDT No Moon Set
Length of Visible Light 14h 08m
Length of Day
13h 09m
Tomorrow will be 2m 55s shorter.
First Quarter, 51% of the Moon is Illuminated
Today
First Quarter
Sep 8
Full
Sep 15
Last Quarter
Sep 24
New
Oct 1
First Quarter

Today's Extremes

State Highs State Lows

Community

WunderPhotos

Upload Photos

1,749,656 photos uploaded!

Nearby

Air Quality

  Air Quality AQ Index Pollutant
Tuesday Good
PM2.5
Tuesday Good
OZONE

Snow Depth

Station Depth Elevation
No new snow has been reported.

Earthquake Activity

City Distance Mag. Time & Date
No recent earthquake activity has been reported nearby.
Minimum magnitude displayed is 2.5.

Coastal Water Temperatures

Place Temperature
Alexandria Bay, NY 69.1 °F
Ogdensburg, NY 66.0 °F

Nearby Weather Stations